Time;durP1;ratioP1;P1;durP2;ratioP2;P2;SDS_P1;SDS_P2;PMS_P1;PMS_P2;Temp;Humidity;BMP_temperature;BMP_pressure;BME280_temperature;BME280_humidity;BME280_pressure;Samples;Min_cycle;Max_cycle;Signal;HPM_P1;HPM_P2
2023/08/13 00:00:01;;;;;;;10.07;3.20;;;18.50;99.90;;;;;;5154606;27;20658;-83
2023/08/13 00:02:30;;;;;;;7.93;2.80;;;18.50;99.90;;;;;;5153170;27;20713;-86
2023/08/13 00:04:58;;;;;;;8.23;2.88;;;18.50;99.90;;;;;;5153192;27;20936;-83
2023/08/13 00:07:25;;;;;;;8.10;2.83;;;18.50;99.90;;;;;;5153370;27;20229;-86
2023/08/13 00:09:52;;;;;;;8.38;2.65;;;18.40;99.90;;;;;;5135725;27;20202;-85
2023/08/13 00:12:19;;;;;;;7.05;2.60;;;18.40;99.90;;;;;;5135532;27;20214;-84
2023/08/13 00:14:46;;;;;;;8.30;2.53;;;18.40;99.90;;;;;;5135823;27;20205;-83
2023/08/13 00:17:13;;;;;;;12.27;2.70;;;18.20;99.90;;;;;;5136319;27;20253;-82
2023/08/13 00:19:41;;;;;;;5.65;2.88;;;18.30;99.90;;;;;;5155393;27;20265;-85
2023/08/13 00:22:08;;;;;;;6.32;2.58;;;18.30;99.90;;;;;;5135165;27;20293;-83
2023/08/13 00:24:35;;;;;;;7.53;2.65;;;18.30;99.90;;;;;;5153673;27;20607;-82
2023/08/13 00:27:02;;;;;;;9.20;2.47;;;18.30;99.90;;;;;;5154847;27;20293;-83
2023/08/13 00:29:30;;;;;;;6.53;2.08;;;18.20;99.90;;;;;;5154141;27;20190;-83
2023/08/13 00:31:57;;;;;;;9.00;2.28;;;18.20;99.90;;;;;;5153428;27;20209;-83
2023/08/13 00:34:24;;;;;;;7.30;2.35;;;18.20;99.90;;;;;;5120221;27;20285;-84
2023/08/13 00:36:51;;;;;;;10.45;2.67;;;18.20;99.90;;;;;;5137802;27;20308;-84
2023/08/13 00:39:18;;;;;;;5.47;2.47;;;18.20;99.90;;;;;;5153953;27;20189;-84
2023/08/13 00:41:45;;;;;;;5.32;2.22;;;18.20;99.90;;;;;;5157656;27;20222;-85
2023/08/13 00:44:11;;;;;;;6.95;2.47;;;18.20;99.90;;;;;;5153211;27;20210;-82
2023/08/13 00:46:39;;;;;;;9.70;3.15;;;18.10;99.90;;;;;;5143151;27;20282;-83
2023/08/13 00:49:06;;;;;;;5.40;2.22;;;18.10;99.90;;;;;;5134685;27;20592;-83
2023/08/13 00:51:32;;;;;;;5.78;2.33;;;18.10;99.90;;;;;;5151650;27;20906;-84
2023/08/13 00:53:59;;;;;;;9.98;2.45;;;18.10;99.90;;;;;;5143159;27;20197;-81
2023/08/13 00:56:26;;;;;;;8.40;2.20;;;18.00;99.90;;;;;;5154482;27;20697;-85
2023/08/13 00:58:53;;;;;;;5.55;2.30;;;18.00;99.90;;;;;;5153859;27;20193;-84
2023/08/13 01:01:20;;;;;;;6.28;2.65;;;18.00;99.90;;;;;;5152920;27;20199;-82
2023/08/13 01:03:47;;;;;;;6.70;2.25;;;18.00;99.90;;;;;;5152247;27;20194;-83
2023/08/13 01:06:30;;;;;;;7.05;1.92;;;18.00;99.90;;;;;;5154730;27;20226;-83
2023/08/13 01:09:22;;;;;;;6.25;2.10;;;17.90;99.90;;;;;;5154387;27;20205;-82
2023/08/13 01:12:10;;;;;;;5.32;2.17;;;17.90;99.90;;;;;;5135697;27;20326;-84
2023/08/13 01:14:50;;;;;;;6.20;2.20;;;17.90;99.90;;;;;;5152952;27;20252;-83
2023/08/13 01:17:17;;;;;;;6.88;2.05;;;17.90;99.90;;;;;;5134331;27;20193;-84
2023/08/13 01:19:44;;;;;;;8.00;2.40;;;17.90;99.90;;;;;;5136757;27;20202;-83
2023/08/13 01:22:11;;;;;;;6.82;1.92;;;18.00;99.90;;;;;;5152731;27;20194;-84
2023/08/13 01:24:38;;;;;;;5.40;2.00;;;17.90;99.90;;;;;;5159182;27;20240;-82
2023/08/13 01:27:22;;;;;;;8.70;2.33;;;17.90;99.90;;;;;;5166338;27;20230;-84
2023/08/13 01:29:57;;;;;;;4.35;2.00;;;17.80;99.90;;;;;;5150241;27;20213;-84
2023/08/13 01:32:31;;;;;;;6.05;2.60;;;17.80;99.90;;;;;;5148471;27;20198;-83
2023/08/13 01:34:59;;;;;;;5.47;2.00;;;17.70;99.90;;;;;;5161451;27;20308;-83
2023/08/13 01:37:27;;;;;;;5.80;2.15;;;17.70;99.90;;;;;;5155732;27;20205;-85
2023/08/13 01:39:55;;;;;;;6.25;1.88;;;17.70;99.90;;;;;;5153750;27;20205;-82
2023/08/13 01:42:22;;;;;;;7.32;1.90;;;17.80;99.90;;;;;;5152841;27;20742;-84
2023/08/13 01:44:48;;;;;;;5.57;2.10;;;17.70;99.90;;;;;;5134891;27;20262;-84
2023/08/13 01:47:15;;;;;;;6.93;2.10;;;17.70;99.90;;;;;;5153320;27;20274;-83
2023/08/13 01:49:42;;;;;;;8.13;2.40;;;17.70;99.90;;;;;;5140797;27;20193;-84
2023/08/13 01:52:09;;;;;;;7.57;1.80;;;17.70;99.90;;;;;;5153258;27;20214;-84
2023/08/13 01:54:37;;;;;;;4.85;1.85;;;17.70;99.90;;;;;;5153129;27;20221;-83
2023/08/13 01:57:05;;;;;;;5.68;2.38;;;17.70;99.90;;;;;;5152689;27;21049;-84
2023/08/13 01:59:32;;;;;;;5.65;2.25;;;17.60;99.90;;;;;;5153848;27;20216;-84
2023/08/13 02:01:59;;;;;;;6.97;2.10;;;17.60;99.90;;;;;;5153298;27;20242;-84
2023/08/13 02:04:26;;;;;;;6.38;1.88;;;17.60;99.90;;;;;;5122472;27;20258;-87
2023/08/13 02:06:52;;;;;;;4.90;2.00;;;17.50;99.90;;;;;;5151901;27;20236;-84
2023/08/13 02:09:19;;;;;;;10.30;2.53;;;17.50;99.90;;;;;;5134705;27;20213;-84
2023/08/13 02:11:46;;;;;;;4.93;2.17;;;17.40;99.90;;;;;;5149284;27;20221;-85
2023/08/13 02:14:13;;;;;;;5.75;2.22;;;17.40;99.90;;;;;;5154241;27;20273;-85
2023/08/13 02:16:40;;;;;;;9.60;2.53;;;17.40;99.90;;;;;;5134727;27;20209;-84
2023/08/13 02:19:06;;;;;;;4.90;2.08;;;17.40;99.90;;;;;;5134267;27;20202;-84
2023/08/13 02:21:34;;;;;;;6.15;1.95;;;17.30;99.90;;;;;;5152726;27;20194;-84
2023/08/13 02:24:03;;;;;;;6.25;2.17;;;17.30;99.90;;;;;;5134559;27;20227;-84
2023/08/13 02:26:30;;;;;;;7.15;2.47;;;17.30;99.90;;;;;;5122488;27;20222;-84
2023/08/13 02:28:57;;;;;;;6.57;2.15;;;17.20;99.90;;;;;;5154233;27;20201;-85
2023/08/13 02:31:23;;;;;;;7.13;2.58;;;17.20;99.90;;;;;;5135147;27;20202;-85
2023/08/13 02:33:50;;;;;;;5.63;3.30;;;17.10;99.90;;;;;;5131001;27;20238;-84
2023/08/13 02:36:17;;;;;;;3.25;2.00;;;17.10;99.90;;;;;;5133796;27;20236;-85
2023/08/13 02:38:44;;;;;;;8.07;2.10;;;17.00;99.90;;;;;;5134300;27;20642;-85
2023/08/13 02:41:11;;;;;;;7.00;2.70;;;17.00;99.90;;;;;;5148939;27;20205;-85
2023/08/13 02:43:52;;;;;;;7.47;2.40;;;17.00;99.90;;;;;;5135193;27;20205;-86
2023/08/13 02:46:20;;;;;;;7.78;2.80;;;17.00;99.90;;;;;;5137403;27;20682;-83
2023/08/13 02:48:48;;;;;;;4.97;2.23;;;16.90;99.90;;;;;;5130066;27;20186;-85
2023/08/13 02:51:15;;;;;;;10.57;2.90;;;16.90;99.90;;;;;;5127978;27;20201;-84
2023/08/13 02:53:42;;;;;;;3.40;2.30;;;16.70;99.90;;;;;;5153114;27;20204;-84
2023/08/13 02:56:10;;;;;;;7.93;2.33;;;16.70;99.90;;;;;;5132797;27;20576;-84
2023/08/13 02:58:37;;;;;;;6.45;2.47;;;16.70;99.90;;;;;;5139482;27;20201;-84
2023/08/13 03:01:04;;;;;;;5.65;2.75;;;16.70;99.90;;;;;;5151265;27;20920;-86
2023/08/13 03:03:31;;;;;;;6.97;2.70;;;16.60;99.90;;;;;;5148697;27;20202;-84
2023/08/13 03:06:08;;;;;;;8.63;2.83;;;16.70;99.90;;;;;;5146176;27;20200;-84
2023/08/13 03:08:35;;;;;;;7.97;3.20;;;16.60;99.90;;;;;;5126879;28;20705;-84
2023/08/13 03:11:03;;;;;;;10.23;3.53;;;16.50;99.90;;;;;;5138856;27;20225;-83
2023/08/13 03:13:29;;;;;;;6.83;2.90;;;16.50;99.90;;;;;;5159464;27;20202;-81
2023/08/13 03:15:56;;;;;;;7.07;3.07;;;16.40;99.90;;;;;;5190861;27;20214;-82
2023/08/13 03:18:24;;;;;;;8.93;2.63;;;16.40;99.90;;;;;;5177046;27;20200;-84
2023/08/13 03:20:51;;;;;;;7.03;2.60;;;16.40;99.90;;;;;;5171582;27;20218;-84
2023/08/13 03:23:18;;;;;;;6.50;2.43;;;16.40;99.90;;;;;;5126846;27;20232;-83
2023/08/13 03:25:44;;;;;;;7.87;3.20;;;16.40;99.90;;;;;;5155241;27;20209;-84
2023/08/13 03:28:11;;;;;;;5.63;2.80;;;16.40;99.90;;;;;;5156139;27;20225;-85
2023/08/13 03:30:38;;;;;;;6.93;3.33;;;16.30;99.90;;;;;;5136478;27;20227;-82
2023/08/13 03:33:05;;;;;;;6.23;3.00;;;16.30;99.90;;;;;;5156291;27;20197;-84
2023/08/13 03:35:37;;;;;;;8.30;3.00;;;16.20;99.90;;;;;;5159615;27;20234;-84
2023/08/13 03:38:04;;;;;;;6.47;2.80;;;16.20;99.90;;;;;;5148385;27;20692;-84
2023/08/13 03:40:36;;;;;;;10.47;3.03;;;16.20;99.90;;;;;;5151087;27;20287;-84
2023/08/13 03:43:04;;;;;;;4.97;2.57;;;16.20;99.90;;;;;;5133636;27;20210;-85
2023/08/13 03:45:31;;;;;;;4.33;2.43;;;16.10;99.90;;;;;;5136632;27;20645;-84
2023/08/13 03:47:58;;;;;;;8.43;3.07;;;16.10;99.90;;;;;;5128938;27;20218;-85
2023/08/13 03:50:25;;;;;;;4.63;2.83;;;16.10;99.90;;;;;;5127202;27;20634;-84
2023/08/13 03:52:52;;;;;;;8.90;3.10;;;16.10;99.90;;;;;;5133926;27;20186;-86
2023/08/13 03:55:19;;;;;;;8.20;2.67;;;16.10;99.90;;;;;;5132403;27;20221;-86
2023/08/13 03:57:45;;;;;;;8.83;2.67;;;16.10;99.90;;;;;;5133693;27;20835;-84
2023/08/13 04:00:13;;;;;;;9.67;3.17;;;16.00;99.90;;;;;;5136075;27;20202;-85
2023/08/13 04:02:39;;;;;;;8.73;2.40;;;16.00;99.90;;;;;;5146017;27;20199;-85
2023/08/13 04:05:07;;;;;;;8.33;2.67;;;16.00;99.90;;;;;;5130476;27;20684;-85
2023/08/13 04:07:34;;;;;;;8.67;3.17;;;16.00;99.90;;;;;;5134537;27;20240;-83
2023/08/13 04:10:01;;;;;;;4.83;3.47;;;16.00;99.90;;;;;;5136792;27;20643;-84
2023/08/13 04:12:27;;;;;;;10.53;3.47;;;16.00;99.90;;;;;;5154698;27;20233;-83
2023/08/13 04:14:54;;;;;;;8.93;3.43;;;16.00;99.90;;;;;;5149795;27;20204;-85
2023/08/13 04:17:21;;;;;;;8.10;3.03;;;16.00;99.90;;;;;;5154131;27;20202;-84
2023/08/13 04:19:48;;;;;;;7.33;3.07;;;16.00;99.90;;;;;;5139176;27;20289;-85
2023/08/13 04:22:15;;;;;;;6.33;2.97;;;16.00;99.90;;;;;;5154964;27;20197;-83
2023/08/13 04:24:42;;;;;;;7.50;2.53;;;16.00;99.90;;;;;;5155384;27;20224;-84
2023/08/13 04:27:09;;;;;;;6.27;2.60;;;16.10;99.90;;;;;;5136182;27;20229;-84
2023/08/13 04:29:36;;;;;;;12.00;3.10;;;16.10;99.90;;;;;;5153434;27;20198;-84
2023/08/13 04:32:03;;;;;;;8.33;2.80;;;16.10;99.90;;;;;;5116230;27;20249;-84
2023/08/13 04:34:30;;;;;;;4.73;2.60;;;16.10;99.90;;;;;;5152977;27;20230;-84
2023/08/13 04:36:57;;;;;;;10.97;3.13;;;16.20;99.90;;;;;;5140333;27;20193;-84
2023/08/13 04:39:24;;;;;;;5.60;2.47;;;16.20;99.90;;;;;;5156581;27;20709;-84
2023/08/13 04:41:53;;;;;;;5.10;3.20;;;16.20;99.90;;;;;;5133751;27;20225;-85
2023/08/13 04:44:19;;;;;;;6.27;2.80;;;16.20;99.90;;;;;;5154581;27;20265;-84
2023/08/13 04:46:46;;;;;;;8.33;2.83;;;16.30;99.90;;;;;;5144360;27;20684;-84
2023/08/13 04:49:14;;;;;;;8.37;2.77;;;16.30;99.90;;;;;;5131782;27;20730;-85
2023/08/13 04:51:41;;;;;;;7.57;2.58;;;16.40;99.90;;;;;;5146084;27;20529;-83
2023/08/13 04:54:08;;;;;;;8.87;2.43;;;16.40;99.90;;;;;;5144608;27;20225;-84
2023/08/13 04:56:35;;;;;;;7.70;2.50;;;16.40;99.90;;;;;;5139651;27;20218;-84
2023/08/13 04:59:02;;;;;;;7.87;2.77;;;16.50;99.90;;;;;;5135663;27;20245;-84
2023/08/13 05:01:29;;;;;;;6.63;2.22;;;16.60;99.90;;;;;;5143383;27;20213;-84
2023/08/13 05:03:56;;;;;;;7.68;2.75;;;16.60;99.90;;;;;;5131808;27;20210;-83
2023/08/13 05:06:23;;;;;;;4.97;2.50;;;16.70;99.90;;;;;;5148922;27;20666;-83
2023/08/13 05:08:49;;;;;;;8.18;2.60;;;16.70;99.90;;;;;;5137874;27;20278;-84
2023/08/13 05:11:16;;;;;;;7.18;2.50;;;16.70;99.90;;;;;;5145108;27;20195;-84
2023/08/13 05:13:43;;;;;;;6.07;2.15;;;16.80;99.90;;;;;;5142713;27;20310;-84
2023/08/13 05:16:10;;;;;;;7.72;2.45;;;16.90;99.90;;;;;;5128841;27;20194;-85
2023/08/13 05:18:38;;;;;;;4.47;2.30;;;16.90;99.90;;;;;;5134292;27;20209;-85
2023/08/13 05:21:06;;;;;;;5.07;2.53;;;16.90;99.90;;;;;;5131824;27;20339;-83
2023/08/13 05:23:33;;;;;;;6.10;2.80;;;17.00;99.90;;;;;;5141689;27;20198;-84
2023/08/13 05:26:00;;;;;;;5.78;2.75;;;17.00;99.90;;;;;;5127247;27;20270;-84
2023/08/13 05:28:26;;;;;;;7.72;2.85;;;17.10;99.90;;;;;;5141025;27;20222;-82
2023/08/13 05:30:53;;;;;;;6.18;2.40;;;17.10;99.90;;;;;;5132442;27;20201;-84
2023/08/13 05:33:20;;;;;;;2.85;2.20;;;17.20;99.90;;;;;;5144517;27;20218;-85
2023/08/13 05:35:47;;;;;;;6.70;2.95;;;17.20;99.90;;;;;;5138275;27;20238;-82
2023/08/13 05:38:14;;;;;;;6.65;2.33;;;17.30;99.90;;;;;;5120617;27;20198;-83
2023/08/13 05:40:41;;;;;;;6.88;2.15;;;17.40;99.90;;;;;;5119998;27;20711;-82
2023/08/13 05:43:07;;;;;;;7.75;2.67;;;17.50;99.90;;;;;;5145855;27;20213;-85
2023/08/13 05:45:34;;;;;;;6.38;2.70;;;17.50;99.90;;;;;;5124356;27;20556;-84
2023/08/13 05:48:02;;;;;;;8.43;2.53;;;17.60;99.90;;;;;;5149953;27;20654;-83
2023/08/13 05:50:29;;;;;;;11.32;3.00;;;17.50;99.90;;;;;;5121247;27;20198;-84
2023/08/13 05:52:56;;;;;;;6.60;2.65;;;17.60;99.90;;;;;;5144524;27;20226;-83
2023/08/13 05:55:23;;;;;;;5.95;2.70;;;17.60;99.90;;;;;;5152152;27;20214;-82
2023/08/13 05:57:50;;;;;;;4.28;2.40;;;17.60;99.90;;;;;;5151935;27;20265;-82
2023/08/13 06:00:20;;;;;;;7.90;2.42;;;17.60;99.90;;;;;;5124533;27;20190;-84
2023/08/13 06:02:48;;;;;;;7.05;2.60;;;17.60;99.90;;;;;;5152934;27;20216;-85
2023/08/13 06:05:15;;;;;;;5.25;2.38;;;17.60;99.90;;;;;;5153608;27;20216;-85
2023/08/13 06:07:41;;;;;;;7.03;3.03;;;17.60;99.90;;;;;;5144990;27;20225;-84
2023/08/13 06:10:08;;;;;;;6.60;2.40;;;17.90;99.90;;;;;;5131151;27;20655;-84
2023/08/13 06:12:35;;;;;;;6.68;2.42;;;18.40;99.90;;;;;;5139339;27;20683;-84
2023/08/13 06:15:02;;;;;;;6.95;2.40;;;19.10;99.90;;;;;;5156444;27;20212;-84
2023/08/13 06:17:30;;;;;;;9.38;2.30;;;20.00;99.90;;;;;;5161199;27;20198;-84
2023/08/13 06:20:00;;;;;;;5.53;1.90;;;20.80;99.90;;;;;;5139777;27;20471;-83
2023/08/13 06:22:27;;;;;;;9.35;1.85;;;21.70;99.90;;;;;;5144145;27;20642;-86
2023/08/13 06:24:54;;;;;;;7.40;1.75;;;22.70;99.90;;;;;;5153124;27;20296;-85
2023/08/13 06:27:22;;;;;;;8.40;2.17;;;23.40;99.90;;;;;;5139866;27;20229;-85
2023/08/13 06:29:49;;;;;;;5.55;1.60;;;24.30;99.90;;;;;;5156434;27;20202;-84
2023/08/13 06:32:35;;;;;;;4.57;1.48;;;;;;;;;;5156325;27;20243;-84
2023/08/13 06:35:02;;;;;;;5.22;1.83;;;24.70;99.90;;;;;;5137876;27;20217;-81
2023/08/13 06:37:29;;;;;;;7.10;1.80;;;25.00;99.90;;;;;;5132154;27;20190;-83
2023/08/13 06:39:56;;;;;;;5.13;1.58;;;25.20;99.90;;;;;;5151827;27;20402;-82
2023/08/13 06:42:23;;;;;;;5.90;1.98;;;25.30;99.90;;;;;;5150404;27;20262;-84
2023/08/13 06:44:50;;;;;;;5.82;1.45;;;25.70;99.90;;;;;;5126302;27;20247;-82
2023/08/13 06:47:17;;;;;;;7.65;1.50;;;26.00;99.90;;;;;;5149253;27;20292;-83
2023/08/13 06:49:44;;;;;;;5.63;1.67;;;26.20;99.90;;;;;;5135502;27;20206;-83
2023/08/13 06:52:13;;;;;;;7.88;1.90;;;26.60;99.90;;;;;;5135650;27;20209;-82
2023/08/13 06:54:41;;;;;;;8.68;1.90;;;26.70;99.90;;;;;;5155388;27;20237;-83
2023/08/13 06:57:09;;;;;;;3.42;1.45;;;;;;;;;;5133447;27;20220;-83
2023/08/13 06:59:36;;;;;;;6.35;1.67;;;26.70;99.90;;;;;;5146186;27;20619;-82
2023/08/13 07:02:04;;;;;;;3.88;1.55;;;26.50;99.90;;;;;;5151370;27;20198;-83
2023/08/13 07:04:31;;;;;;;4.38;1.10;;;26.40;99.90;;;;;;5143033;27;20202;-82
2023/08/13 07:06:59;;;;;;;2.90;1.42;;;26.30;99.90;;;;;;5160597;27;20222;-83
2023/08/13 07:09:27;;;;;;;4.43;1.20;;;26.20;99.90;;;;;;5159730;27;20221;-81
2023/08/13 07:11:54;;;;;;;4.25;1.50;;;26.00;99.90;;;;;;5146314;27;20205;-80
2023/08/13 07:14:22;;;;;;;5.55;1.33;;;26.00;99.90;;;;;;5136839;27;20205;-84
2023/08/13 07:16:49;;;;;;;5.75;1.77;;;25.60;99.90;;;;;;5148269;27;20567;-83
2023/08/13 07:19:15;;;;;;;4.68;1.05;;;25.70;99.90;;;;;;5135086;27;20206;-84
2023/08/13 07:21:42;;;;;;;2.25;1.13;;;26.00;99.90;;;;;;5151000;27;20201;-83
2023/08/13 07:24:09;;;;;;;2.42;1.25;;;26.30;99.90;;;;;;5149506;27;20213;-81
2023/08/13 07:26:36;;;;;;;4.40;1.25;;;26.40;99.90;;;;;;5146876;27;20241;-84
2023/08/13 07:29:06;;;;;;;3.38;1.20;;;26.60;99.90;;;;;;5143122;27;20214;-83
2023/08/13 07:31:36;;;;;;;2.30;0.90;;;26.80;99.90;;;;;;5144373;27;20280;-83
2023/08/13 07:34:04;;;;;;;4.57;1.30;;;27.30;99.90;;;;;;5140626;27;20202;-83
2023/08/13 07:36:31;;;;;;;4.38;1.50;;;27.80;99.90;;;;;;5129065;27;20262;-82
2023/08/13 07:38:59;;;;;;;3.80;1.13;;;;;;;;;;5132419;27;20679;-81
2023/08/13 07:41:25;;;;;;;3.65;1.13;;;28.00;99.90;;;;;;5145968;27;20263;-83
2023/08/13 07:43:54;;;;;;;3.88;1.10;;;28.20;99.90;;;;;;5139189;27;20244;-83
2023/08/13 07:46:21;;;;;;;5.82;1.15;;;28.30;99.90;;;;;;5150534;27;20194;-82
2023/08/13 07:48:48;;;;;;;3.83;1.17;;;28.30;99.90;;;;;;5148001;27;20694;-82
2023/08/13 07:51:15;;;;;;;5.05;1.20;;;28.00;99.90;;;;;;5139368;27;20257;-82
2023/08/13 07:53:42;;;;;;;5.05;1.15;;;27.80;99.90;;;;;;5130823;27;20207;-83
2023/08/13 07:56:09;;;;;;;3.50;1.08;;;28.20;99.90;;;;;;5153386;27;20258;-83
2023/08/13 07:58:36;;;;;;;4.43;1.55;;;28.10;99.90;;;;;;5152903;27;20204;-83
2023/08/13 08:01:03;;;;;;;2.47;1.10;;;28.30;99.90;;;;;;5155155;27;20221;-82
2023/08/13 08:03:31;;;;;;;2.50;0.93;;;;;;;;;;5129839;27;20205;-81
2023/08/13 08:05:57;;;;;;;3.13;1.65;;;28.40;99.90;;;;;;5145423;27;20198;-81
2023/08/13 08:08:24;;;;;;;4.75;1.00;;;28.30;99.90;;;;;;5151478;27;20225;-81
2023/08/13 08:10:51;;;;;;;3.15;1.02;;;28.20;99.90;;;;;;5136647;27;20280;-81
2023/08/13 08:13:18;;;;;;;4.80;0.95;;;27.60;99.90;;;;;;5145328;27;20249;-82
2023/08/13 08:15:45;;;;;;;4.20;1.10;;;27.10;99.90;;;;;;5129847;27;20202;-82
2023/08/13 08:18:12;;;;;;;2.95;1.27;;;26.70;99.90;;;;;;5152359;27;20712;-81
2023/08/13 08:20:39;;;;;;;2.40;0.98;;;26.30;99.90;;;;;;5153892;27;20205;-81
2023/08/13 08:23:06;;;;;;;2.78;1.13;;;26.10;99.90;;;;;;5136026;27;20247;-81
2023/08/13 08:25:33;;;;;;;3.63;0.90;;;26.00;99.90;;;;;;5119869;27;20194;-81
2023/08/13 08:28:00;;;;;;;3.30;1.17;;;26.00;99.90;;;;;;5152621;27;20277;-82
2023/08/13 08:30:36;;;;;;;4.00;1.33;;;25.90;99.90;;;;;;5146567;27;20213;-82
2023/08/13 08:33:04;;;;;;;2.15;1.00;;;26.10;99.90;;;;;;5135623;27;20201;-85
2023/08/13 08:35:31;;;;;;;3.30;0.93;;;26.40;99.90;;;;;;5154383;27;20230;-84
2023/08/13 08:37:58;;;;;;;3.47;1.08;;;26.50;99.90;;;;;;5137759;27;20241;-85
2023/08/13 08:40:26;;;;;;;3.72;1.02;;;26.50;99.90;;;;;;5138107;27;20548;-85
2023/08/13 08:42:56;;;;;;;1.75;0.75;;;26.40;99.90;;;;;;5137600;27;20317;-83
2023/08/13 08:45:24;;;;;;;3.95;1.00;;;26.40;99.90;;;;;;5155541;27;20402;-82
2023/08/13 08:47:53;;;;;;;1.95;0.98;;;26.60;99.90;;;;;;5154789;27;20201;-85
2023/08/13 08:50:20;;;;;;;2.75;1.10;;;26.40;99.90;;;;;;5126541;27;20205;-83
2023/08/13 08:52:48;;;;;;;2.00;0.90;;;26.60;99.90;;;;;;5145472;27;20210;-83
2023/08/13 08:55:17;;;;;;;2.17;1.02;;;26.90;99.90;;;;;;5160384;27;20574;-84
2023/08/13 08:57:44;;;;;;;2.65;0.90;;;26.90;99.90;;;;;;5139700;27;20226;-84
2023/08/13 09:00:11;;;;;;;1.55;0.60;;;26.90;99.90;;;;;;5135932;27;20202;-84
2023/08/13 09:02:39;;;;;;;2.67;0.98;;;26.80;99.90;;;;;;5136284;27;20206;-85
2023/08/13 09:05:07;;;;;;;2.85;0.95;;;27.10;99.90;;;;;;5136332;27;20221;-83
2023/08/13 09:07:34;;;;;;;1.75;0.90;;;27.40;99.90;;;;;;5135945;27;20281;-83
2023/08/13 09:10:04;;;;;;;3.30;1.30;;;27.60;99.90;;;;;;5135122;27;20697;-84
2023/08/13 09:12:39;;;;;;;4.03;1.60;;;27.40;99.90;;;;;;5146113;27;20315;-84
2023/08/13 09:15:09;;;;;;;3.38;1.17;;;27.40;99.90;;;;;;5147265;27;20697;-83
2023/08/13 09:17:37;;;;;;;3.78;1.13;;;27.50;99.90;;;;;;5150178;27;20512;-85
2023/08/13 09:20:20;;;;;;;7.53;1.38;;;27.30;99.90;;;;;;5135831;27;20688;-83
2023/08/13 09:22:48;;;;;;;6.63;1.60;;;26.90;99.90;;;;;;5149137;27;20712;-84
2023/08/13 09:25:16;;;;;;;3.83;1.60;;;26.90;99.90;;;;;;5135898;27;20202;-84
2023/08/13 09:27:44;;;;;;;4.97;1.40;;;26.90;99.90;;;;;;5145706;27;20591;-85
2023/08/13 09:30:28;;;;;;;6.15;1.75;;;26.90;99.90;;;;;;5154313;27;20201;-86
2023/08/13 09:33:02;;;;;;;5.70;1.30;;;26.90;99.90;;;;;;5145077;27;20182;-86
2023/08/13 09:35:29;;;;;;;4.05;1.45;;;26.60;99.90;;;;;;5134574;27;20246;-84
2023/08/13 09:37:56;;;;;;;4.47;1.67;;;26.70;99.90;;;;;;5130002;27;20179;-84
2023/08/13 09:40:24;;;;;;;8.18;1.65;;;26.40;99.90;;;;;;5118615;28;20200;-84
2023/08/13 09:42:53;;;;;;;5.57;1.35;;;26.20;99.90;;;;;;5108970;28;20208;-87
2023/08/13 09:45:26;;;;;;;5.32;1.65;;;26.00;99.90;;;;;;5107599;28;20207;-88
2023/08/13 09:47:55;;;;;;;3.95;1.92;;;25.80;99.90;;;;;;5113714;27;20199;-85
2023/08/13 09:50:26;;;;;;;6.63;2.22;;;25.90;99.90;;;;;;5106006;28;20245;-84
2023/08/13 09:52:55;;;;;;;5.32;1.48;;;25.80;99.90;;;;;;5097119;28;20666;-84
2023/08/13 09:55:28;;;;;;;4.88;1.60;;;25.90;99.90;;;;;;5112196;27;20558;-84
2023/08/13 09:57:58;;;;;;;4.35;1.60;;;25.70;99.90;;;;;;5102804;28;20656;-86
2023/08/13 10:00:25;;;;;;;6.53;1.88;;;25.40;99.90;;;;;;5104404;28;20594;-85
2023/08/13 10:02:52;;;;;;;6.47;2.03;;;25.20;99.90;;;;;;5097823;28;20195;-84
2023/08/13 10:05:20;;;;;;;7.65;1.60;;;25.10;99.90;;;;;;5109310;28;20229;-85
2023/08/13 10:07:48;;;;;;;2.67;1.52;;;25.10;99.90;;;;;;5110387;28;20210;-84
2023/08/13 10:10:16;;;;;;;5.75;1.80;;;25.20;99.90;;;;;;5108180;28;20318;-83
2023/08/13 10:12:44;;;;;;;5.65;1.40;;;25.10;99.90;;;;;;5107326;28;20207;-84
2023/08/13 10:15:11;;;;;;;5.28;2.17;;;25.10;99.90;;;;;;5109769;27;20203;-85
2023/08/13 10:17:42;;;;;;;5.88;1.50;;;25.20;99.90;;;;;;5114778;28;20203;-85
2023/08/13 10:20:09;;;;;;;4.22;1.65;;;25.40;99.90;;;;;;5110132;28;20251;-86
2023/08/13 10:22:38;;;;;;;6.13;2.13;;;25.30;99.90;;;;;;5105152;27;20192;-85
2023/08/13 10:25:07;;;;;;;7.40;1.90;;;25.40;99.90;;;;;;5108185;28;20203;-82
2023/08/13 10:27:36;;;;;;;5.25;1.70;;;25.40;99.90;;;;;;5104538;28;20218;-82
2023/08/13 10:30:05;;;;;;;8.65;1.85;;;25.40;99.90;;;;;;5111208;28;20730;-84
2023/08/13 10:32:32;;;;;;;5.68;1.65;;;25.40;99.90;;;;;;5105668;28;20210;-85
2023/08/13 10:35:20;;;;;;;3.92;1.60;;;25.50;99.90;;;;;;5111888;27;20580;-82
2023/08/13 10:38:00;;;;;;;5.72;1.80;;;25.40;99.90;;;;;;5125849;27;20195;-82
2023/08/13 10:40:27;;;;;;;4.35;1.55;;;25.20;99.90;;;;;;5112562;27;20211;-83
2023/08/13 10:43:01;;;;;;;9.13;1.70;;;25.10;99.90;;;;;;5108692;28;20229;-83
2023/08/13 10:45:34;;;;;;;6.38;2.10;;;25.10;99.90;;;;;;5109155;28;20230;-82
2023/08/13 10:48:08;;;;;;;8.32;1.88;;;25.10;99.90;;;;;;5106541;28;20201;-82
2023/08/13 10:50:39;;;;;;;5.25;1.77;;;25.20;99.90;;;;;;5125195;27;20203;-83
2023/08/13 10:53:11;;;;;;;4.03;1.52;;;25.20;99.90;;;;;;5094838;28;20702;-80
2023/08/13 10:55:53;;;;;;;5.63;1.77;;;25.40;99.90;;;;;;5109447;28;20237;-81
2023/08/13 10:58:28;;;;;;;6.47;2.05;;;25.60;99.90;;;;;;5094168;28;20215;-85
2023/08/13 11:01:21;;;;;;;8.65;1.77;;;25.70;99.90;;;;;;5098281;28;20237;-86
2023/08/13 11:03:55;;;;;;;5.85;1.77;;;25.90;99.90;;;;;;5096613;28;20535;-82
2023/08/13 11:06:24;;;;;;;4.85;1.77;;;26.00;99.90;;;;;;5126629;28;20725;-82
2023/08/13 11:08:52;;;;;;;4.90;1.42;;;26.00;99.90;;;;;;5125898;28;20709;-85
2023/08/13 11:11:19;;;;;;;7.38;1.60;;;25.90;99.90;;;;;;5105118;28;20191;-82
2023/08/13 11:13:48;;;;;;;6.70;1.65;;;25.80;99.90;;;;;;5098932;28;20283;-83
2023/08/13 11:16:16;;;;;;;9.35;1.90;;;25.90;99.90;;;;;;5104016;28;20767;-82
2023/08/13 11:18:46;;;;;;;7.97;1.83;;;25.80;99.90;;;;;;5119962;27;20203;-85
2023/08/13 11:21:13;;;;;;;4.80;1.50;;;25.90;99.90;;;;;;5112038;28;20260;-82
2023/08/13 11:23:40;;;;;;;7.55;1.73;;;25.90;99.90;;;;;;5103066;28;20242;-82
2023/08/13 11:26:07;;;;;;;4.93;1.90;;;25.90;99.90;;;;;;5109651;27;20665;-83
2023/08/13 11:28:35;;;;;;;5.32;2.25;;;25.90;99.90;;;;;;5112344;28;20202;-82
2023/08/13 11:31:02;;;;;;;2.92;1.60;;;25.80;99.90;;;;;;5113972;28;20203;-83
2023/08/13 11:33:29;;;;;;;5.32;1.75;;;25.70;99.90;;;;;;5106194;28;20203;-82
2023/08/13 11:35:56;;;;;;;4.13;1.50;;;25.70;99.90;;;;;;5132214;27;20238;-83
2023/08/13 11:38:23;;;;;;;4.78;1.50;;;25.70;99.90;;;;;;5135077;27;20198;-78
2023/08/13 11:40:50;;;;;;;5.63;1.95;;;25.70;99.90;;;;;;5130611;27;20198;-82
2023/08/13 11:43:22;;;;;;;6.93;1.85;;;25.70;99.90;;;;;;5124114;27;20221;-82
2023/08/13 11:45:49;;;;;;;5.03;1.60;;;25.70;99.90;;;;;;5126661;27;20206;-83
2023/08/13 11:48:21;;;;;;;7.18;1.55;;;25.60;99.90;;;;;;5127963;27;20263;-83
2023/08/13 11:50:55;;;;;;;4.13;1.58;;;25.80;99.90;;;;;;5126647;27;20202;-84
2023/08/13 11:53:43;;;;;;;4.68;1.85;;;26.00;99.90;;;;;;5121242;27;20726;-83
2023/08/13 11:56:11;;;;;;;6.93;1.95;;;25.80;99.90;;;;;;5120820;27;20211;-83
2023/08/13 11:58:43;;;;;;;5.28;2.08;;;25.80;99.90;;;;;;5126206;27;20195;-82
2023/08/13 12:01:12;;;;;;;7.13;1.58;;;25.80;99.90;;;;;;5129936;27;20206;-83
2023/08/13 12:03:41;;;;;;;4.22;1.50;;;25.80;99.90;;;;;;5131612;27;20254;-84
2023/08/13 12:06:10;;;;;;;5.63;1.77;;;26.00;99.90;;;;;;5133453;27;20676;-83
2023/08/13 12:08:37;;;;;;;9.93;2.53;;;26.00;99.90;;;;;;5132470;27;20206;-84
2023/08/13 12:11:05;;;;;;;5.38;2.03;;;26.00;99.90;;;;;;5134574;27;20202;-84
2023/08/13 12:13:41;;;;;;;4.95;1.80;;;26.00;99.90;;;;;;5122930;27;20218;-84
2023/08/13 12:16:07;;;;;;;6.93;1.85;;;26.00;99.90;;;;;;5131617;27;20206;-83
2023/08/13 12:18:34;;;;;;;5.75;1.58;;;26.00;99.90;;;;;;5134264;27;20198;-83
2023/08/13 12:21:02;;;;;;;3.88;1.90;;;26.00;99.90;;;;;;5134091;27;20304;-84
2023/08/13 12:23:29;;;;;;;5.90;1.65;;;25.80;99.90;;;;;;5131020;27;20898;-83
2023/08/13 12:25:56;;;;;;;5.40;1.90;;;25.70;99.90;;;;;;5132573;27;20194;-83
2023/08/13 12:28:24;;;;;;;9.32;1.70;;;25.90;99.90;;;;;;5131377;27;20206;-83
2023/08/13 12:30:51;;;;;;;5.63;1.70;;;26.20;99.90;;;;;;5130686;27;21695;-82
2023/08/13 12:33:18;;;;;;;4.47;1.77;;;26.50;99.90;;;;;;5119046;27;20203;-83
2023/08/13 12:35:45;;;;;;;6.35;1.45;;;26.80;99.90;;;;;;5134304;27;20325;-82
2023/08/13 12:38:12;;;;;;;5.57;1.73;;;26.80;99.90;;;;;;5134364;27;20249;-83
2023/08/13 12:40:42;;;;;;;5.13;1.60;;;27.00;99.90;;;;;;5135750;27;20698;-84
2023/08/13 12:43:09;;;;;;;5.32;1.50;;;27.20;99.90;;;;;;5134569;27;20219;-83
2023/08/13 12:45:52;;;;;;;6.15;1.65;;;27.40;99.90;;;;;;5138688;27;20216;-85
2023/08/13 12:48:19;;;;;;;4.95;1.60;;;27.40;99.90;;;;;;5138987;27;20202;-84
2023/08/13 12:50:46;;;;;;;8.00;2.17;;;27.50;99.90;;;;;;5141220;27;20302;-82
2023/08/13 12:53:14;;;;;;;3.30;1.48;;;27.30;99.90;;;;;;5124254;27;20620;-84